ADDS METAR Data INFO
IDs: Format: Raw Decoded Include TAF

Data at: 0251 UTC 17 Jan 2018

METAR for:KSPG (St Petersburg/Whitte, FL, US)
Text:KSPG 170153Z AUTO 02005KT 10SM CLR 16/11 A3027 RMK AO2 SLP251 T01560106
Temperature: 15.6°C ( 60°F)
Dewpoint: 10.6°C ( 51°F) [RH = 72%]
Pressure (altimeter):30.27 inches Hg (1025.1 mb) [Sea level pressure: 1025.1 mb]
Winds:from the NNE (20 degrees) at 6 MPH (5 knots; 2.6 m/s)
Visibility:10 or more sm (16+ km)
Ceiling:at least 12,000 feet AGL
Clouds:sky clear below 12,000 feet AGL
QC Flag:automated observation with no human augmentation